createdAt,value
2019-04-03T00:00:20.563Z,82.39
2019-04-03T00:01:20.593Z,81.92
2019-04-03T00:02:20.621Z,82.76
2019-04-03T00:03:20.649Z,82.48
2019-04-03T00:04:20.681Z,83.24
2019-04-03T00:05:20.695Z,83.81
2019-04-03T00:06:20.722Z,83.81
2019-04-03T00:07:20.752Z,84.00
2019-04-03T00:08:20.778Z,83.81
2019-04-03T00:09:20.802Z,83.33
2019-04-03T00:10:20.830Z,83.05
2019-04-03T00:11:20.856Z,82.67
2019-04-03T00:12:20.884Z,82.76
2019-04-03T00:13:20.915Z,81.72
2019-04-03T00:14:20.938Z,80.87
2019-04-03T00:15:20.962Z,80.21
2019-04-03T00:16:20.987Z,79.26
2019-04-03T00:17:21.018Z,78.98
2019-04-03T00:18:21.042Z,79.17
2019-04-03T00:19:21.159Z,79.02
2019-04-03T00:20:21.093Z,79.02
2019-04-03T00:21:21.120Z,78.16
2019-04-03T00:22:21.954Z,78.35
2019-04-03T00:23:22.449Z,78.22
2019-04-03T00:24:22.617Z,78.31
2019-04-03T00:25:22.307Z,78.50
2019-04-03T00:26:22.444Z,79.07
2019-04-03T00:27:22.267Z,78.88
2019-04-03T00:28:22.345Z,78.98
2019-04-03T00:29:22.684Z,78.31
2019-04-03T00:30:22.509Z,77.84
2019-04-03T00:31:22.970Z,77.75
2019-04-03T00:32:21.820Z,77.56
2019-04-03T00:33:22.979Z,77.03
2019-04-03T00:34:23.006Z,76.27
2019-04-03T00:35:23.117Z,76.36
2019-04-03T00:36:23.247Z,75.79
2019-04-03T00:37:23.294Z,75.70
2019-04-03T00:38:23.929Z,75.79
2019-04-03T00:39:23.965Z,76.17
2019-04-03T00:40:23.990Z,75.51
2019-04-03T00:41:24.120Z,75.04
2019-04-03T00:42:24.062Z,75.66
2019-04-03T00:43:24.370Z,75.57
2019-04-03T00:44:23.994Z,75.23
2019-04-03T00:45:24.201Z,75.47
2019-04-03T00:46:22.836Z,75.95
2019-04-03T00:47:21.806Z,75.76
2019-04-03T00:48:21.832Z,75.95
2019-04-03T00:49:21.858Z,75.66
2019-04-03T00:50:21.887Z,75.95
2019-04-03T00:51:21.912Z,75.47
2019-04-03T00:52:21.937Z,75.00
2019-04-03T00:53:22.115Z,75.76
2019-04-03T00:54:21.993Z,76.61
2019-04-03T00:55:22.021Z,77.37
2019-04-03T00:56:22.046Z,77.18
2019-04-03T00:57:22.074Z,77.08
2019-04-03T00:58:22.096Z,77.75
2019-04-03T00:59:22.126Z,78.13
2019-04-03T01:00:22.156Z,78.13
2019-04-03T01:01:22.175Z,78.31
2019-04-03T01:02:22.205Z,78.50
2019-04-03T01:03:22.228Z,78.98
2019-04-03T01:04:22.378Z,79.45
2019-04-03T01:05:22.282Z,80.30
2019-04-03T01:06:22.309Z,81.44
2019-04-03T01:07:22.339Z,81.82
2019-04-03T01:08:22.359Z,81.53
2019-04-03T01:09:22.388Z,81.92
2019-04-03T01:10:22.614Z,81.92
2019-04-03T01:11:22.440Z,82.76
2019-04-03T01:12:22.470Z,82.57
2019-04-03T01:13:22.498Z,82.10
2019-04-03T01:14:22.520Z,82.01
2019-04-03T01:15:22.549Z,81.92
2019-04-03T01:16:22.572Z,81.72
2019-04-03T01:17:22.597Z,81.34
2019-04-03T01:18:22.632Z,80.96
2019-04-03T01:19:22.701Z,81.25
2019-04-03T01:20:22.677Z,81.63
2019-04-03T01:21:22.702Z,81.72
2019-04-03T01:22:22.731Z,82.20
2019-04-03T01:23:22.755Z,81.92
2019-04-03T01:24:22.788Z,81.53
2019-04-03T01:25:22.810Z,81.53
2019-04-03T01:26:22.833Z,81.72
2019-04-03T01:27:22.996Z,82.01
2019-04-03T01:28:22.888Z,80.77
2019-04-03T01:29:22.919Z,80.30
2019-04-03T01:30:22.943Z,80.77
2019-04-03T01:31:22.965Z,81.06
2019-04-03T01:32:22.995Z,80.96
2019-04-03T01:33:23.017Z,81.25
2019-04-03T01:34:23.045Z,80.96
2019-04-03T01:35:23.070Z,81.53
2019-04-03T01:36:23.096Z,81.92
2019-04-03T01:37:23.122Z,82.01
2019-04-03T01:38:23.152Z,82.20
2019-04-03T01:39:23.280Z,81.53
2019-04-03T01:40:23.204Z,81.92
2019-04-03T01:41:23.230Z,81.92
2019-04-03T01:42:23.257Z,81.25
2019-04-03T01:43:23.613Z,81.63
2019-04-03T01:44:24.701Z,81.63
2019-04-03T01:45:25.411Z,82.43
2019-04-03T01:46:23.358Z,81.92
2019-04-03T01:47:23.386Z,81.92
2019-04-03T01:48:23.411Z,82.76
2019-04-03T01:49:23.439Z,83.52
2019-04-03T01:50:23.468Z,84.09
2019-04-03T01:51:23.493Z,84.75
2019-04-03T01:52:23.632Z,85.32
2019-04-03T01:53:23.543Z,85.23
2019-04-03T01:54:23.573Z,85.80
2019-04-03T01:55:23.599Z,85.42
2019-04-03T01:56:23.668Z,85.04
2019-04-03T01:57:23.651Z,85.61
2019-04-03T01:58:23.676Z,86.08
2019-04-03T01:59:23.702Z,86.08
2019-04-03T02:00:23.727Z,87.21
2019-04-03T02:01:23.755Z,87.98
2019-04-03T02:02:23.781Z,87.59
2019-04-03T02:03:23.806Z,87.31
2019-04-03T02:04:23.834Z,86.46
2019-04-03T02:05:23.993Z,85.99
2019-04-03T02:06:23.884Z,85.80
2019-04-03T02:07:24.039Z,86.08
2019-04-03T02:08:23.936Z,86.18
2019-04-03T02:09:23.963Z,86.36
2019-04-03T02:10:24.225Z,86.83
2019-04-03T02:11:24.016Z,87.21
2019-04-03T02:12:24.050Z,87.98
2019-04-03T02:13:24.075Z,87.98
2019-04-03T02:14:24.101Z,87.98
2019-04-03T02:15:24.125Z,88.73
2019-04-03T02:16:24.148Z,88.35
2019-04-03T02:17:24.239Z,87.40
2019-04-03T02:18:25.459Z,87.31
2019-04-03T02:19:26.103Z,87.31
2019-04-03T02:20:26.129Z,87.78
2019-04-03T02:21:24.278Z,88.35
2019-04-03T02:22:24.454Z,88.45
2019-04-03T02:23:24.332Z,87.59
2019-04-03T02:24:24.526Z,87.12
2019-04-03T02:25:24.384Z,87.31
2019-04-03T02:26:24.418Z,87.21
2019-04-03T02:27:24.588Z,87.12
2019-04-03T02:28:24.461Z,87.31
2019-04-03T02:29:24.491Z,87.50
2019-04-03T02:30:24.521Z,87.31
2019-04-03T02:31:24.543Z,87.31
2019-04-03T02:32:24.933Z,87.12
2019-04-03T02:33:28.186Z,86.93
2019-04-03T02:34:24.624Z,87.21
2019-04-03T02:35:24.784Z,87.21
2019-04-03T02:36:24.702Z,87.31
2019-04-03T02:37:24.721Z,88.73
2019-04-03T02:38:24.727Z,88.45
2019-04-03T02:39:27.391Z,88.73
2019-04-03T02:40:24.779Z,89.39
2019-04-03T02:41:24.803Z,90.06
2019-04-03T02:42:24.830Z,90.34
2019-04-03T02:43:24.858Z,90.53
2019-04-03T02:44:24.885Z,90.63
2019-04-03T02:45:25.071Z,90.25
2019-04-03T02:46:26.943Z,90.15
2019-04-03T02:47:25.196Z,88.54
2019-04-03T02:48:24.987Z,87.78
2019-04-03T02:49:25.240Z,87.78
2019-04-03T02:50:25.429Z,88.45
2019-04-03T02:51:25.072Z,88.45
2019-04-03T02:52:25.621Z,87.98
2019-04-03T02:53:25.147Z,86.83
2019-04-03T02:54:25.147Z,86.46
2019-04-03T02:55:25.175Z,87.50
2019-04-03T02:56:25.201Z,87.59
2019-04-03T02:57:25.222Z,87.78
2019-04-03T02:58:25.257Z,87.78
2019-04-03T02:59:26.457Z,87.88
2019-04-03T03:00:25.305Z,87.98
2019-04-03T03:01:25.355Z,88.45
2019-04-03T03:02:25.674Z,88.92
2019-04-03T03:03:25.786Z,88.35
2019-04-03T03:04:25.415Z,88.54
2019-04-03T03:05:28.080Z,88.82
2019-04-03T03:06:25.463Z,88.54
2019-04-03T03:07:25.680Z,87.78
2019-04-03T03:08:25.629Z,87.59
2019-04-03T03:09:25.542Z,87.59
2019-04-03T03:10:25.582Z,87.59
2019-04-03T03:11:25.589Z,87.78
2019-04-03T03:12:27.694Z,88.35
2019-04-03T03:13:25.804Z,88.54
2019-04-03T03:14:25.668Z,88.73
2019-04-03T03:15:25.696Z,88.64
2019-04-03T03:16:25.964Z,88.26
2019-04-03T03:17:25.753Z,87.98
2019-04-03T03:18:27.225Z,87.88
2019-04-03T03:19:25.799Z,87.50
2019-04-03T03:20:25.827Z,86.46
2019-04-03T03:21:25.884Z,85.89
2019-04-03T03:22:25.875Z,85.89
2019-04-03T03:23:25.938Z,86.27
2019-04-03T03:24:28.419Z,85.89
2019-04-03T03:25:25.966Z,85.70
2019-04-03T03:26:25.978Z,85.32
2019-04-03T03:27:26.008Z,84.94
2019-04-03T03:28:26.030Z,85.32
2019-04-03T03:29:27.398Z,84.47
2019-04-03T03:30:40.001Z,84.75
2019-04-03T03:31:57.514Z,84.66
2019-04-03T03:32:32.555Z,84.94
2019-04-03T03:33:34.768Z,84.47
2019-04-03T03:34:48.221Z,83.33
2019-04-03T03:35:30.635Z,82.95
2019-04-03T03:36:26.826Z,82.29
2019-04-03T03:37:26.556Z,82.10
2019-04-03T03:38:28.130Z,81.72
2019-04-03T03:39:26.318Z,81.63
2019-04-03T03:40:26.355Z,81.15
2019-04-03T03:41:26.368Z,80.68
2019-04-03T03:42:30.112Z,80.68
2019-04-03T03:43:26.673Z,80.96
2019-04-03T03:44:26.466Z,81.72
2019-04-03T03:45:26.475Z,82.20
2019-04-03T03:46:27.819Z,82.48
2019-04-03T03:47:27.182Z,84.00
2019-04-03T03:48:26.563Z,84.09
2019-04-03T03:49:26.794Z,84.19
2019-04-03T03:50:26.736Z,84.85
2019-04-03T03:51:30.138Z,85.70
2019-04-03T03:52:26.667Z,86.08
2019-04-03T03:53:26.683Z,85.99
2019-04-03T03:54:26.713Z,86.55
2019-04-03T03:55:26.735Z,86.46
2019-04-03T03:56:30.768Z,86.36
2019-04-03T03:57:26.787Z,86.83
2019-04-03T03:58:26.815Z,86.93
2019-04-03T03:59:26.840Z,87.21
2019-04-03T04:00:26.867Z,87.31
2019-04-03T04:01:30.166Z,87.98
2019-04-03T04:02:26.917Z,88.31
2019-04-03T04:03:27.004Z,88.45
2019-04-03T04:04:27.276Z,88.87
2019-04-03T04:05:27.211Z,89.20
2019-04-03T04:06:29.044Z,89.39
2019-04-03T04:07:27.053Z,89.58
2019-04-03T04:08:27.444Z,89.11
2019-04-03T04:09:27.102Z,89.01
2019-04-03T04:10:27.127Z,88.35
2019-04-03T04:11:28.105Z,87.78
2019-04-03T04:12:27.178Z,86.93
2019-04-03T04:13:27.204Z,86.55
2019-04-03T04:14:27.233Z,86.08
2019-04-03T04:15:30.444Z,85.80
2019-04-03T04:16:27.656Z,85.74
2019-04-03T04:17:27.308Z,85.08
2019-04-03T04:18:27.347Z,85.08
2019-04-03T04:19:30.565Z,85.17
2019-04-03T04:20:27.390Z,84.61
2019-04-03T04:21:27.414Z,84.70
2019-04-03T04:22:28.127Z,84.89
2019-04-03T04:23:27.468Z,84.32
2019-04-03T04:24:27.976Z,83.47
2019-04-03T04:25:28.291Z,83.00
2019-04-03T04:26:27.547Z,82.90
2019-04-03T04:27:27.573Z,83.47
2019-04-03T04:28:27.603Z,83.56
2019-04-03T04:29:27.624Z,83.85
2019-04-03T04:30:27.650Z,84.13
2019-04-03T04:31:27.679Z,84.04
2019-04-03T04:32:27.897Z,84.42
2019-04-03T04:33:27.734Z,84.89
2019-04-03T04:34:27.759Z,84.32
2019-04-03T04:35:27.792Z,83.13
2019-04-03T04:36:27.813Z,82.94
2019-04-03T04:37:27.943Z,82.56
2019-04-03T04:38:27.867Z,82.18
2019-04-03T04:39:28.459Z,80.29
2019-04-03T04:40:28.984Z,79.76
2019-04-03T04:41:28.144Z,78.53
2019-04-03T04:42:27.977Z,77.58
2019-04-03T04:43:28.007Z,75.96
2019-04-03T04:44:28.027Z,74.64
2019-04-03T04:45:28.133Z,75.05
2019-04-03T04:46:28.085Z,74.73
2019-04-03T04:47:28.112Z,74.07
2019-04-03T04:48:28.138Z,72.68
2019-04-03T04:49:28.167Z,71.17
2019-04-03T04:50:28.194Z,70.69
2019-04-03T04:51:28.224Z,69.84
2019-04-03T04:52:28.301Z,68.35
2019-04-03T04:53:29.847Z,68.54
2019-04-03T04:54:28.746Z,68.07
2019-04-03T04:55:30.594Z,67.15
2019-04-03T04:56:28.539Z,67.02
2019-04-03T04:57:28.394Z,67.79
2019-04-03T04:58:28.425Z,68.07
2019-04-03T04:59:28.452Z,67.21
2019-04-03T05:00:29.890Z,66.46
2019-04-03T05:01:28.509Z,66.49
2019-04-03T05:02:28.543Z,65.35
2019-04-03T05:03:28.586Z,64.59
2019-04-03T05:04:28.597Z,64.69
2019-04-03T05:05:30.711Z,63.54
2019-04-03T05:06:29.643Z,63.01
2019-04-03T05:07:30.619Z,63.07
2019-04-03T05:08:28.717Z,63.83
2019-04-03T05:09:28.745Z,63.54
2019-04-03T05:10:28.777Z,63.17
2019-04-03T05:11:28.811Z,64.21
2019-04-03T05:12:28.836Z,64.02
2019-04-03T05:13:28.994Z,64.40
2019-04-03T05:14:29.000Z,64.30
2019-04-03T05:15:28.924Z,63.48
2019-04-03T05:16:28.954Z,62.62
2019-04-03T05:17:28.986Z,62.40
2019-04-03T05:18:29.615Z,62.40
2019-04-03T05:19:29.232Z,62.62
2019-04-03T05:20:29.079Z,61.87
2019-04-03T05:21:29.108Z,61.23
2019-04-03T05:22:29.140Z,60.25
2019-04-03T05:23:29.168Z,61.39
2019-04-03T05:24:29.531Z,60.25
2019-04-03T05:25:29.775Z,59.61
2019-04-03T05:26:31.909Z,60.09
2019-04-03T05:27:29.299Z,59.30
2019-04-03T05:28:29.326Z,60.44
2019-04-03T05:29:29.357Z,59.58
2019-04-03T05:30:29.389Z,59.42
2019-04-03T05:31:29.416Z,58.09
2019-04-03T05:32:29.737Z,58.59
2019-04-03T05:33:29.693Z,58.37
2019-04-03T05:34:29.513Z,59.01
2019-04-03T05:35:29.547Z,59.23
2019-04-03T05:36:29.578Z,58.69
2019-04-03T05:37:29.609Z,57.45
2019-04-03T05:38:29.836Z,57.65
2019-04-03T05:39:29.689Z,58.18
2019-04-03T05:40:29.702Z,58.28
2019-04-03T05:41:29.738Z,57.84
2019-04-03T05:42:29.770Z,57.36
2019-04-03T05:43:30.812Z,57.65
2019-04-03T05:44:32.852Z,57.17
2019-04-03T05:45:29.866Z,57.26
2019-04-03T05:46:30.109Z,57.45
2019-04-03T05:47:29.931Z,56.53
2019-04-03T05:48:29.966Z,56.12
2019-04-03T05:49:29.995Z,56.12
2019-04-03T05:50:30.107Z,56.60
2019-04-03T05:51:30.340Z,56.05
2019-04-03T05:52:30.097Z,55.39
2019-04-03T05:53:30.129Z,55.77
2019-04-03T05:54:30.162Z,55.93
2019-04-03T05:55:30.196Z,56.12
2019-04-03T05:56:30.226Z,56.88
2019-04-03T05:57:30.355Z,57.07
2019-04-03T05:58:30.298Z,57.71
2019-04-03T05:59:32.741Z,57.68
2019-04-03T06:00:30.554Z,58.95
2019-04-03T06:01:30.400Z,58.47
2019-04-03T06:02:30.427Z,57.71
2019-04-03T06:03:39.190Z,57.17
2019-04-03T06:04:30.492Z,57.65
2019-04-03T06:05:30.529Z,57.04
2019-04-03T06:06:30.580Z,56.88
2019-04-03T06:07:30.593Z,56.41
2019-04-03T06:08:30.628Z,56.79
2019-04-03T06:09:30.948Z,56.60
2019-04-03T06:10:32.390Z,56.22
2019-04-03T06:11:30.814Z,55.96
2019-04-03T06:12:30.762Z,55.10
2019-04-03T06:13:31.075Z,55.10
2019-04-03T06:14:30.830Z,54.25
2019-04-03T06:15:30.863Z,54.72
2019-04-03T06:16:31.066Z,54.56
2019-04-03T06:17:31.023Z,54.69
2019-04-03T06:18:31.974Z,55.39
2019-04-03T06:19:34.059Z,55.08
2019-04-03T06:20:31.032Z,55.87
2019-04-03T06:21:31.068Z,55.83
2019-04-03T06:22:31.101Z,55.36
2019-04-03T06:23:31.140Z,55.10
2019-04-03T06:24:31.172Z,54.56
2019-04-03T06:25:31.525Z,54.56
2019-04-03T06:26:31.239Z,54.85
2019-04-03T06:27:31.276Z,55.20
2019-04-03T06:28:31.399Z,56.15
2019-04-03T06:29:31.365Z,55.13
2019-04-03T06:30:31.637Z,55.26
2019-04-03T06:31:31.413Z,53.47
2019-04-03T06:32:31.447Z,52.33
2019-04-03T06:33:33.558Z,51.73
2019-04-03T06:34:31.602Z,51.66
2019-04-03T06:35:34.365Z,51.64
2019-04-03T06:36:31.590Z,51.73
2019-04-03T06:37:31.622Z,52.20
2019-04-03T06:38:31.659Z,53.06
2019-04-03T06:39:32.327Z,54.02
2019-04-03T06:40:32.059Z,53.99
2019-04-03T06:41:31.762Z,54.49
2019-04-03T06:42:31.799Z,53.58
2019-04-03T06:43:31.836Z,54.94
2019-04-03T06:44:31.874Z,55.26
2019-04-03T06:45:32.091Z,52.97
2019-04-03T06:46:31.943Z,53.64
2019-04-03T06:47:32.855Z,55.35
2019-04-03T06:48:32.014Z,55.90
2019-04-03T06:49:32.110Z,56.02
2019-04-03T06:50:32.085Z,55.92
2019-04-03T06:51:32.128Z,54.52
2019-04-03T06:52:32.164Z,54.90
2019-04-03T06:53:32.192Z,55.92
2019-04-03T06:54:32.408Z,55.95
2019-04-03T06:55:33.213Z,53.76
2019-04-03T06:56:32.544Z,53.83
2019-04-03T06:57:32.342Z,54.24
2019-04-03T06:58:38.000Z,55.07
2019-04-03T06:59:32.659Z,54.75
2019-04-03T07:00:32.524Z,56.68
2019-04-03T07:01:32.804Z,56.46
2019-04-03T07:02:32.528Z,55.16
2019-04-03T07:03:34.324Z,54.61
2019-04-03T07:04:32.598Z,55.85
2019-04-03T07:05:32.635Z,56.40
2019-04-03T07:06:32.670Z,55.85
2019-04-03T07:07:35.033Z,53.88
2019-04-03T07:08:35.620Z,57.28
2019-04-03T07:09:36.495Z,55.41
2019-04-03T07:10:32.818Z,54.90
2019-04-03T07:11:32.858Z,55.88
2019-04-03T07:12:32.957Z,54.90
2019-04-03T07:13:32.928Z,54.78
2019-04-03T07:14:32.969Z,57.54
2019-04-03T07:15:33.087Z,60.72
2019-04-03T07:16:33.042Z,63.32
2019-04-03T07:17:33.078Z,63.80
2019-04-03T07:18:33.120Z,63.76
2019-04-03T07:19:33.221Z,66.24
2019-04-03T07:20:33.192Z,66.24
2019-04-03T07:21:33.229Z,65.86
2019-04-03T07:22:33.267Z,66.68
2019-04-03T07:23:33.306Z,67.44
2019-04-03T07:24:33.342Z,68.15
2019-04-03T07:25:34.452Z,66.27
2019-04-03T07:26:33.630Z,66.18
2019-04-03T07:27:36.371Z,65.26
2019-04-03T07:28:33.496Z,65.61
2019-04-03T07:29:33.532Z,65.23
2019-04-03T07:30:33.568Z,65.95
2019-04-03T07:31:33.861Z,67.29
2019-04-03T07:32:33.642Z,67.47
2019-04-03T07:33:34.005Z,67.57
2019-04-03T07:34:34.598Z,67.44
2019-04-03T07:35:33.759Z,67.76
2019-04-03T07:36:33.791Z,65.99
2019-04-03T07:37:33.829Z,64.28
2019-04-03T07:38:33.866Z,64.75
2019-04-03T07:39:33.905Z,65.23
2019-04-03T07:40:33.941Z,65.55
2019-04-03T07:41:34.148Z,63.99
2019-04-03T07:42:34.017Z,65.61
2019-04-03T07:43:34.055Z,66.18
2019-04-03T07:44:34.091Z,64.40
2019-04-03T07:45:34.132Z,62.49
2019-04-03T07:46:34.170Z,62.40
2019-04-03T07:47:34.977Z,63.26
2019-04-03T07:48:35.678Z,65.19
2019-04-03T07:49:34.281Z,66.27
2019-04-03T07:50:36.495Z,65.80
2019-04-03T07:51:34.394Z,66.33
2019-04-03T07:52:34.396Z,68.40
2019-04-03T07:53:34.434Z,68.77
2019-04-03T07:54:34.721Z,67.80
2019-04-03T07:55:34.534Z,66.27
2019-04-03T07:56:34.552Z,65.19
2019-04-03T07:57:34.589Z,65.42
2019-04-03T07:58:34.626Z,64.37
2019-04-03T07:59:35.036Z,64.08
2019-04-03T08:00:37.892Z,63.70
2019-04-03T08:01:34.774Z,64.28
2019-04-03T08:02:34.777Z,63.60
2019-04-03T08:03:34.819Z,63.70
2019-04-03T08:04:34.853Z,64.08
2019-04-03T08:05:34.891Z,64.37
2019-04-03T08:06:36.024Z,64.21
2019-04-03T08:07:34.969Z,63.07
2019-04-03T08:08:35.007Z,63.89
2019-04-03T08:09:35.046Z,65.13
2019-04-03T08:10:37.252Z,66.31
2019-04-03T08:11:37.236Z,63.73
2019-04-03T08:12:35.915Z,62.78
2019-04-03T08:13:37.626Z,64.78
2019-04-03T08:14:35.238Z,62.97
2019-04-03T08:15:35.299Z,63.26
2019-04-03T08:16:35.559Z,64.72
2019-04-03T08:17:35.355Z,65.61
2019-04-03T08:18:35.740Z,63.73
2019-04-03T08:19:35.764Z,62.59
2019-04-03T08:20:35.473Z,62.21
2019-04-03T08:21:35.517Z,62.68
2019-04-03T08:22:35.806Z,63.45
2019-04-03T08:23:37.035Z,64.47
2019-04-03T08:24:35.628Z,64.28
2019-04-03T08:25:35.679Z,64.94
2019-04-03T08:26:35.824Z,62.62
2019-04-03T08:27:35.826Z,62.15
2019-04-03T08:28:35.785Z,61.99
2019-04-03T08:29:37.904Z,60.46
2019-04-03T08:30:37.054Z,59.95
2019-04-03T08:31:36.225Z,62.05
2019-04-03T08:32:35.945Z,61.73
2019-04-03T08:33:35.986Z,63.45
2019-04-03T08:34:36.022Z,61.96
2019-04-03T08:35:36.474Z,60.75
2019-04-03T08:36:38.729Z,60.65
2019-04-03T08:37:36.139Z,60.27
2019-04-03T08:38:36.432Z,57.63
2019-04-03T08:39:36.583Z,57.53
2019-04-03T08:40:36.260Z,58.14
2019-04-03T08:41:37.382Z,61.16
2019-04-03T08:42:36.338Z,56.55
2019-04-03T08:43:36.682Z,56.46
2019-04-03T08:44:36.521Z,57.53
2019-04-03T08:45:38.494Z,56.41
2019-04-03T08:46:36.496Z,54.63
2019-04-03T08:47:37.566Z,53.91
2019-04-03T08:48:36.577Z,56.29
2019-04-03T08:49:36.619Z,56.77
2019-04-03T08:50:36.657Z,57.50
2019-04-03T08:51:36.703Z,56.60
2019-04-03T08:52:37.092Z,55.91
2019-04-03T08:53:39.312Z,56.36
2019-04-03T08:54:36.819Z,56.90
2019-04-03T08:55:36.860Z,58.75
2019-04-03T08:56:36.903Z,57.63
2019-04-03T08:57:36.948Z,55.15
2019-04-03T08:58:37.113Z,52.88
2019-04-03T08:59:37.022Z,50.62
2019-04-03T09:00:37.146Z,52.03
2019-04-03T09:01:37.403Z,53.69
2019-04-03T09:02:37.143Z,53.14
2019-04-03T09:03:37.184Z,50.49
2019-04-03T09:04:37.224Z,50.40
2019-04-03T09:05:37.534Z,52.79
2019-04-03T09:06:37.420Z,53.17
2019-04-03T09:07:37.347Z,51.64
2019-04-03T09:08:37.395Z,51.17
2019-04-03T09:09:37.431Z,52.03
2019-04-03T09:10:37.671Z,51.71
2019-04-03T09:11:37.775Z,50.59
2019-04-03T09:12:38.456Z,46.06
2019-04-03T09:13:37.599Z,38.79
2019-04-03T09:14:37.633Z,36.33
2019-04-03T09:15:37.681Z,33.86
2019-04-03T09:16:37.867Z,34.22
2019-04-03T09:17:37.759Z,32.50
2019-04-03T09:18:38.349Z,32.04
2019-04-03T09:19:41.065Z,31.66
2019-04-03T09:20:37.940Z,31.09
2019-04-03T09:21:37.923Z,31.10
2019-04-03T09:22:37.966Z,31.40
2019-04-03T09:23:38.003Z,30.35
2019-04-03T09:24:38.044Z,30.26
2019-04-03T09:25:38.181Z,30.33
2019-04-03T09:26:38.316Z,30.90
2019-04-03T09:27:40.373Z,32.14
2019-04-03T09:28:41.400Z,31.30
2019-04-03T09:29:38.562Z,30.54
2019-04-03T09:30:38.292Z,29.86
2019-04-03T09:31:38.339Z,30.83
2019-04-03T09:32:38.381Z,30.55
2019-04-03T09:33:38.489Z,30.87
2019-04-03T09:34:38.460Z,28.56
2019-04-03T09:35:38.747Z,29.31
2019-04-03T09:36:38.615Z,30.26
2019-04-03T09:37:38.838Z,30.22
2019-04-03T09:38:40.712Z,31.18
2019-04-03T09:39:38.674Z,31.37
2019-04-03T09:40:38.714Z,30.43
2019-04-03T09:41:38.754Z,30.26
2019-04-03T09:42:38.801Z,30.81
2019-04-03T09:43:39.910Z,31.77
2019-04-03T09:44:38.882Z,31.38
2019-04-03T09:45:38.925Z,31.96
2019-04-03T09:46:38.968Z,32.23
2019-04-03T09:47:39.014Z,32.15
2019-04-03T09:48:39.258Z,30.43
2019-04-03T09:49:42.653Z,30.93
2019-04-03T09:50:39.137Z,30.26
2019-04-03T09:51:39.184Z,30.54
2019-04-03T09:52:47.675Z,30.00
2019-04-03T09:53:39.262Z,28.92
2019-04-03T09:54:39.407Z,29.60
2019-04-03T09:55:39.350Z,29.20
2019-04-03T09:56:54.464Z,29.97
2019-04-03T09:57:39.735Z,30.16
2019-04-03T09:58:39.707Z,29.98
2019-04-03T09:59:39.596Z,28.92
2019-04-03T10:00:41.349Z,28.92
2019-04-03T10:01:39.608Z,29.58
2019-04-03T10:02:39.645Z,30.54
2019-04-03T10:03:39.690Z,29.66
2019-04-03T10:04:39.931Z,30.80
2019-04-03T10:05:39.771Z,32.21
2019-04-03T10:06:39.814Z,32.31
2019-04-03T10:07:39.858Z,32.23
2019-04-03T10:08:40.374Z,32.07
2019-04-03T10:09:43.212Z,30.99
2019-04-03T10:10:40.230Z,31.21
2019-04-03T10:11:40.036Z,30.44
2019-04-03T10:12:40.133Z,30.26
2019-04-03T10:13:40.108Z,30.44
2019-04-03T10:14:40.281Z,34.85
2019-04-03T10:15:40.356Z,38.37
2019-04-03T10:16:40.235Z,36.84
2019-04-03T10:17:40.281Z,35.88
2019-04-03T10:18:41.791Z,38.37
2019-04-03T10:19:40.364Z,38.54
2019-04-03T10:20:40.405Z,39.12
2019-04-03T10:21:41.021Z,39.22
2019-04-03T10:22:40.566Z,40.34
2019-04-03T10:23:40.533Z,42.54
2019-04-03T10:24:40.761Z,43.59
2019-04-03T10:25:40.617Z,42.24
2019-04-03T10:26:40.992Z,40.52
2019-04-03T10:27:43.170Z,39.00
2019-04-03T10:28:42.544Z,39.10
2019-04-03T10:29:40.954Z,39.48
2019-04-03T10:30:40.826Z,39.22
2019-04-03T10:31:40.874Z,38.71
2019-04-03T10:32:40.910Z,40.94
2019-04-03T10:33:40.954Z,40.26
2019-04-03T10:34:41.368Z,38.54
2019-04-03T10:35:41.037Z,38.17
2019-04-03T10:36:42.027Z,38.56
2019-04-03T10:37:41.369Z,40.46
2019-04-03T10:38:42.680Z,39.96
2019-04-03T10:39:44.240Z,40.34
2019-04-03T10:40:41.246Z,39.00
2019-04-03T10:41:41.663Z,38.34
2019-04-03T10:42:41.379Z,38.45
2019-04-03T10:43:41.376Z,35.86
2019-04-03T10:44:41.414Z,33.36
2019-04-03T10:45:41.668Z,32.90
2019-04-03T10:46:41.494Z,31.67
2019-04-03T10:47:44.168Z,31.38
2019-04-03T10:48:41.582Z,32.92
2019-04-03T10:49:41.629Z,34.16
2019-04-03T10:50:41.663Z,34.32
2019-04-03T10:51:42.111Z,35.00
2019-04-03T10:52:44.174Z,35.96
2019-04-03T10:53:42.029Z,36.84
2019-04-03T10:54:41.829Z,34.72
2019-04-03T10:55:41.869Z,34.83
2019-04-03T10:56:41.984Z,34.08
2019-04-03T10:57:41.953Z,34.64
2019-04-03T10:58:43.626Z,34.26
2019-04-03T10:59:42.037Z,35.98
2019-04-03T11:00:42.080Z,35.60
2019-04-03T11:01:42.153Z,35.60
2019-04-03T11:02:42.162Z,34.53
2019-04-03T11:03:42.203Z,34.80
2019-04-03T11:04:42.242Z,35.58
2019-04-03T11:05:42.626Z,33.36
2019-04-03T11:06:42.346Z,33.38
2019-04-03T11:07:42.368Z,34.45
2019-04-03T11:08:42.408Z,34.93
2019-04-03T11:09:42.451Z,35.50
2019-04-03T11:10:42.492Z,35.20
2019-04-03T11:11:43.638Z,33.36
2019-04-03T11:12:42.574Z,34.34
2019-04-03T11:13:42.622Z,35.47
2019-04-03T11:14:42.662Z,34.81
2019-04-03T11:15:44.715Z,35.94
2019-04-03T11:16:45.934Z,35.96
2019-04-03T11:17:42.781Z,37.23
2019-04-03T11:18:42.825Z,36.25
2019-04-03T11:19:44.193Z,40.44
2019-04-03T11:20:42.905Z,41.70
2019-04-03T11:21:44.055Z,39.90
2019-04-03T11:22:43.542Z,36.44
2019-04-03T11:23:45.041Z,36.75
2019-04-03T11:24:43.328Z,35.86
2019-04-03T11:25:45.909Z,33.38
2019-04-03T11:26:43.167Z,34.74
2019-04-03T11:27:45.065Z,36.92
2019-04-03T11:28:43.682Z,37.19
2019-04-03T11:29:43.374Z,37.23
2019-04-03T11:30:43.321Z,35.69
2019-04-03T11:31:43.477Z,36.08
2019-04-03T11:32:43.780Z,33.86
2019-04-03T11:33:45.611Z,34.14
2019-04-03T11:34:43.563Z,32.90
2019-04-03T11:35:43.597Z,32.52
2019-04-03T11:36:43.868Z,33.56
2019-04-03T11:37:43.755Z,33.28
2019-04-03T11:38:43.655Z,34.37
2019-04-03T11:39:44.076Z,32.26
2019-04-03T11:40:43.892Z,32.07
2019-04-03T11:41:43.776Z,34.18
2019-04-03T11:42:43.817Z,33.61
2019-04-03T11:43:44.196Z,32.65
2019-04-03T11:44:43.898Z,32.57
2019-04-03T11:45:44.072Z,32.18
2019-04-03T11:46:43.982Z,37.97
2019-04-03T11:47:46.048Z,42.93
2019-04-03T11:48:44.064Z,41.28
2019-04-03T11:49:44.106Z,41.85
2019-04-03T11:50:44.364Z,41.20
2019-04-03T11:51:44.189Z,40.44
2019-04-03T11:52:44.336Z,39.48
2019-04-03T11:53:45.489Z,39.22
2019-04-03T11:54:44.312Z,38.47
2019-04-03T11:55:44.356Z,37.97
2019-04-03T11:56:45.243Z,38.66
2019-04-03T11:57:47.384Z,37.90
2019-04-03T11:58:44.479Z,39.67
2019-04-03T11:59:46.857Z,44.26
2019-04-03T12:00:44.564Z,46.15
2019-04-03T12:01:44.608Z,44.34
2019-04-03T12:02:45.104Z,41.97
2019-04-03T12:03:44.687Z,40.92
2019-04-03T12:04:44.727Z,39.77
2019-04-03T12:05:45.763Z,42.16
2019-04-03T12:06:44.810Z,42.16
2019-04-03T12:07:44.855Z,41.28
2019-04-03T12:08:45.693Z,39.48
2019-04-03T12:09:44.933Z,38.07
2019-04-03T12:10:44.985Z,39.39
2019-04-03T12:11:45.019Z,39.69
2019-04-03T12:12:45.058Z,41.20
2019-04-03T12:13:46.114Z,45.72
2019-04-03T12:14:45.142Z,49.16
2019-04-03T12:15:45.183Z,48.90
2019-04-03T12:16:45.223Z,44.41
2019-04-03T12:17:45.597Z,42.90
2019-04-03T12:18:45.302Z,41.95
2019-04-03T12:19:46.108Z,42.16
2019-04-03T12:20:46.614Z,40.34
2019-04-03T12:21:45.618Z,43.21
2019-04-03T12:22:45.476Z,42.37
2019-04-03T12:23:45.506Z,41.22
2019-04-03T12:24:45.548Z,40.94
2019-04-03T12:25:45.895Z,42.94
2019-04-03T12:26:45.634Z,44.07
2019-04-03T12:27:46.548Z,41.41
2019-04-03T12:28:46.893Z,40.44
2019-04-03T12:29:45.751Z,38.07
2019-04-03T12:30:45.941Z,37.30
2019-04-03T12:31:45.888Z,36.44
2019-04-03T12:32:49.409Z,36.92
2019-04-03T12:33:53.898Z,37.19
2019-04-03T12:34:46.434Z,36.92
2019-04-03T12:35:46.224Z,39.50
2019-04-03T12:36:46.594Z,40.09
2019-04-03T12:37:46.176Z,40.26
2019-04-03T12:38:46.119Z,40.29
2019-04-03T12:39:46.234Z,36.92
2019-04-03T12:40:46.205Z,37.70
2019-04-03T12:41:46.242Z,37.04
2019-04-03T12:42:46.282Z,36.36
2019-04-03T12:43:47.866Z,36.84
2019-04-03T12:44:46.657Z,38.20
2019-04-03T12:45:46.406Z,34.28
2019-04-03T12:46:46.793Z,33.22
2019-04-03T12:47:46.637Z,33.99
2019-04-03T12:48:46.579Z,34.55
2019-04-03T12:49:46.978Z,34.37
2019-04-03T12:50:46.903Z,35.41
2019-04-03T12:51:46.657Z,34.91
2019-04-03T12:52:46.694Z,35.79